Time;durP1;ratioP1;P1;durP2;ratioP2;P2;SDS_P1;SDS_P2;PMS_P1;PMS_P2;Temp;Humidity;BMP_temperature;BMP_pressure;BME280_temperature;BME280_humidity;BME280_pressure;Samples;Min_cycle;Max_cycle;Signal;HPM_P1;HPM_P2
2023/06/23 00:01:37;;;;;;;8.73;4.55;;;19.00;99.90;;;19.25;100.00;100974.47;5217262;28;20053;-47
2023/06/23 00:04:09;;;;;;;10.00;5.68;;;19.00;99.90;;;19.25;100.00;100985.91;5222971;28;20044;-48
2023/06/23 00:06:43;;;;;;;9.82;6.25;;;19.10;99.90;;;19.23;100.00;100978.84;5210029;28;20040;-47
2023/06/23 00:09:17;;;;;;;11.93;6.40;;;19.00;99.90;;;19.22;100.00;100991.19;5216231;28;20045;-46
2023/06/23 00:11:50;;;;;;;10.13;5.45;;;19.00;99.90;;;19.24;100.00;100996.50;5211969;28;20048;-48
2023/06/23 00:14:22;;;;;;;12.32;8.07;;;19.00;99.90;;;19.24;100.00;100997.38;5215186;28;20509;-47
2023/06/23 00:16:54;;;;;;;11.65;6.70;;;19.10;99.90;;;19.22;100.00;101014.97;5213812;28;20253;-47
2023/06/23 00:19:27;;;;;;;10.82;6.53;;;19.00;99.90;;;19.20;100.00;101011.44;5219173;28;20501;-47
2023/06/23 00:22:02;;;;;;;16.05;7.15;;;19.00;99.90;;;19.19;100.00;101024.66;5226110;28;20044;-47
2023/06/23 00:24:35;;;;;;;11.10;6.35;;;19.00;99.90;;;19.17;100.00;101027.31;5211252;28;20065;-47
2023/06/23 00:27:07;;;;;;;11.68;6.38;;;19.00;99.90;;;19.13;100.00;101029.91;5209382;28;20045;-46
2023/06/23 00:29:40;;;;;;;10.20;5.78;;;18.90;99.90;;;19.11;100.00;101031.69;5222556;28;20140;-47
2023/06/23 00:32:13;;;;;;;13.60;7.55;;;18.90;99.90;;;19.08;100.00;101027.25;5217664;28;20049;-48
2023/06/23 00:34:46;;;;;;;11.95;6.65;;;18.80;99.90;;;19.08;100.00;101024.59;5216656;28;20052;-47
2023/06/23 00:37:25;;;;;;;10.95;6.05;;;18.80;99.90;;;19.04;100.00;101028.13;5208063;28;20044;-48
2023/06/23 00:39:58;;;;;;;10.65;6.95;;;18.80;99.90;;;18.97;100.00;101015.75;5211423;28;20520;-47
2023/06/23 00:42:35;;;;;;;11.00;5.85;;;18.80;99.90;;;18.95;100.00;101020.16;5218758;28;20049;-47
2023/06/23 00:45:09;;;;;;;11.15;6.40;;;18.70;99.90;;;18.94;100.00;101024.56;5216084;28;20455;-47
2023/06/23 00:47:43;;;;;;;9.70;5.53;;;18.70;99.90;;;18.92;100.00;101033.38;5221521;28;20138;-47
2023/06/23 00:50:17;;;;;;;13.35;7.30;;;18.70;99.90;;;18.89;100.00;101028.06;5215340;28;20076;-48
2023/06/23 00:52:52;;;;;;;13.15;6.75;;;18.70;99.90;;;18.84;100.00;101033.31;5216710;28;20097;-46
2023/06/23 00:55:30;;;;;;;11.65;6.40;;;18.70;99.90;;;18.84;100.00;101038.59;5220948;28;20048;-48
2023/06/23 00:58:02;;;;;;;12.25;7.65;;;18.60;99.90;;;18.84;100.00;101042.97;5216373;28;20044;-47
2023/06/23 01:00:35;;;;;;;14.68;6.70;;;18.60;99.90;;;18.85;100.00;101050.06;5215429;28;20053;-47
2023/06/23 01:03:08;;;;;;;13.77;6.80;;;18.60;99.90;;;18.88;100.00;101064.16;5214977;28;20040;-47
2023/06/23 01:05:41;;;;;;;11.27;6.32;;;18.70;99.90;;;18.87;100.00;101059.75;5211041;28;20527;-47
2023/06/23 01:08:30;;;;;;;12.75;5.93;;;18.60;99.90;;;18.87;100.00;101069.44;5220970;28;20059;-48
2023/06/23 01:11:12;;;;;;;11.60;6.43;;;18.60;99.90;;;18.87;100.00;101069.44;5219040;28;20378;-47
2023/06/23 01:13:53;;;;;;;13.75;7.88;;;18.70;99.90;;;18.82;100.00;101071.16;5217142;28;20060;-47
2023/06/23 01:16:30;;;;;;;12.13;6.72;;;18.60;99.90;;;18.78;100.00;101074.63;5217686;28;20068;-47
2023/06/23 01:19:15;;;;;;;10.45;6.00;;;18.60;99.90;;;18.78;100.00;101079.91;5217711;28;20297;-47
2023/06/23 01:22:01;;;;;;;14.25;6.70;;;18.60;99.90;;;18.80;100.00;101083.47;5224642;28;20068;-48
2023/06/23 01:25:00;;;;;;;11.10;6.07;;;18.60;99.90;;;18.78;100.00;101085.22;5221646;28;20501;-47
2023/06/23 01:27:56;;;;;;;9.77;5.72;;;18.60;99.90;;;18.79;100.00;101092.28;5222636;28;20041;-47
2023/06/23 01:30:34;;;;;;;11.55;5.57;;;18.60;99.90;;;18.81;100.00;101101.09;5225539;28;20044;-47
2023/06/23 01:33:12;;;;;;;10.52;5.20;;;18.60;99.90;;;18.81;100.00;101106.38;5217386;28;20048;-47
2023/06/23 01:35:51;;;;;;;11.95;5.70;;;18.60;99.90;;;18.80;100.00;101094.03;5220944;28;20051;-48
2023/06/23 01:38:32;;;;;;;11.57;5.40;;;18.60;99.90;;;18.77;100.00;101109.84;5214569;28;20063;-47
2023/06/23 01:41:10;;;;;;;11.02;5.78;;;18.60;99.90;;;18.70;100.00;101106.28;5214238;28;20098;-48
2023/06/23 01:43:47;;;;;;;8.80;4.22;;;18.50;99.90;;;18.66;100.00;101110.69;5233411;28;20049;-48
2023/06/23 01:46:26;;;;;;;7.78;3.75;;;18.50;99.90;;;18.68;100.00;101122.13;5217171;28;20048;-47
2023/06/23 01:49:06;;;;;;;7.35;3.90;;;18.50;99.90;;;18.69;100.00;101133.56;5218238;28;20041;-47
2023/06/23 01:51:46;;;;;;;8.95;4.63;;;18.50;99.90;;;18.64;100.00;101136.13;5224958;28;20044;-47
2023/06/23 01:54:23;;;;;;;8.57;4.50;;;18.50;99.90;;;18.64;100.00;101145.81;5222229;28;20045;-47
2023/06/23 01:56:56;;;;;;;7.85;3.65;;;18.50;99.90;;;18.64;100.00;101146.69;5227494;28;20052;-47
2023/06/23 01:59:34;;;;;;;8.40;4.18;;;18.50;99.90;;;18.65;100.00;101144.97;5219472;28;20135;-47
2023/06/23 02:02:10;;;;;;;7.70;3.65;;;18.50;99.90;;;18.61;100.00;101149.34;5209545;28;20540;-48
2023/06/23 02:04:45;;;;;;;6.25;3.38;;;18.50;99.90;;;18.58;100.00;101151.97;5210856;28;20033;-47
2023/06/23 02:07:19;;;;;;;7.00;3.67;;;18.40;99.90;;;18.55;100.00;101146.66;5225570;28;20135;-48
2023/06/23 02:09:54;;;;;;;8.05;3.88;;;18.40;99.90;;;18.53;100.00;101145.75;5224381;28;20047;-48
2023/06/23 02:12:26;;;;;;;;;;;18.40;99.90;;;18.54;100.00;101159.84;5218974;28;20497;-47
2023/06/23 02:14:59;;;;;;;5.35;3.13;;;18.30;99.90;;;18.53;100.00;101169.50;5216515;28;19924;-47
2023/06/23 02:17:37;;;;;;;5.15;3.13;;;18.30;99.90;;;18.53;100.00;101174.78;5215991;28;20056;-47
2023/06/23 02:20:15;;;;;;;7.18;3.45;;;18.30;99.90;;;18.53;100.00;101181.84;5209164;28;20048;-48
2023/06/23 02:22:50;;;;;;;7.10;3.50;;;18.30;99.90;;;18.54;100.00;101189.75;5220226;28;20408;-47
2023/06/23 02:25:25;;;;;;;6.20;2.65;;;18.40;99.90;;;18.55;100.00;101188.88;5214513;28;20049;-47
2023/06/23 02:27:58;;;;;;;5.13;3.05;;;18.30;99.90;;;18.55;100.00;101191.53;5211972;28;20062;-46
2023/06/23 02:30:32;;;;;;;7.53;3.33;;;18.40;99.90;;;18.50;100.00;101195.88;5228886;28;20052;-47
2023/06/23 02:33:07;;;;;;;5.68;2.97;;;18.30;99.90;;;18.44;100.00;101196.69;5225160;28;20048;-47
2023/06/23 02:35:43;;;;;;;6.38;3.22;;;18.30;99.90;;;18.41;100.00;101206.38;5215811;28;20114;-47
2023/06/23 02:38:21;;;;;;;6.28;3.22;;;18.20;99.90;;;18.32;100.00;101199.25;5213844;28;20052;-48
2023/06/23 02:40:55;;;;;;;7.90;3.47;;;18.20;99.90;;;18.30;100.00;101211.53;5219478;28;20517;-47
2023/06/23 02:43:34;;;;;;;6.13;3.08;;;18.20;99.90;;;18.28;100.00;101208.00;5224694;28;20045;-47
2023/06/23 02:46:11;;;;;;;5.07;2.92;;;18.10;99.90;;;18.27;100.00;101208.00;5211628;28;20084;-48
2023/06/23 02:48:47;;;;;;;5.95;2.70;;;18.10;99.90;;;18.29;100.00;101208.88;5237895;28;20121;-48
2023/06/23 02:51:23;;;;;;;4.88;2.90;;;18.10;99.90;;;18.28;100.00;101209.75;5228571;28;20053;-48
2023/06/23 02:54:01;;;;;;;9.40;3.83;;;18.10;99.90;;;18.26;100.00;101211.50;5220034;28;20053;-47
2023/06/23 02:56:37;;;;;;;10.88;3.33;;;18.10;99.90;;;18.25;100.00;101222.91;5220657;28;20045;-47
2023/06/23 02:59:15;;;;;;;5.32;3.20;;;18.10;99.90;;;18.26;100.00;101232.63;5228384;28;20313;-47
2023/06/23 03:01:53;;;;;;;5.85;2.88;;;18.10;99.90;;;18.27;100.00;101229.97;5219837;28;20059;-47
2023/06/23 03:04:27;;;;;;;5.30;2.65;;;18.10;99.90;;;18.30;100.00;101234.41;5214631;28;20080;-47
2023/06/23 03:07:00;;;;;;;5.70;2.80;;;18.10;99.90;;;18.30;100.00;101242.31;5209970;28;20440;-47
2023/06/23 03:09:33;;;;;;;4.80;2.63;;;18.10;99.90;;;18.32;100.00;101248.47;5236792;28;20048;-47
2023/06/23 03:12:07;;;;;;;5.00;2.97;;;18.10;99.90;;;18.33;100.00;101239.72;5216906;28;20486;-49
2023/06/23 03:14:40;;;;;;;5.35;2.75;;;18.10;99.90;;;18.33;100.00;101240.59;5220135;28;20048;-48
2023/06/23 03:17:23;;;;;;;6.50;3.30;;;18.10;99.90;;;18.32;100.00;101243.19;5219956;28;20055;-49
2023/06/23 03:20:06;;;;;;;5.57;3.22;;;18.10;99.90;;;18.30;100.00;101245.84;5219754;28;20390;-49
2023/06/23 03:22:43;;;;;;;6.32;3.20;;;18.10;99.90;;;18.33;100.00;101250.28;5228450;28;20055;-49
2023/06/23 03:25:25;;;;;;;7.82;3.08;;;18.10;99.90;;;18.30;100.00;101252.88;5220551;28;20076;-49
2023/06/23 03:28:03;;;;;;;5.53;2.85;;;18.10;99.90;;;18.29;100.00;101253.75;5218690;28;20049;-50
2023/06/23 03:30:41;;;;;;;8.15;3.45;;;18.10;99.90;;;18.27;100.00;101256.38;5223950;28;20051;-50
2023/06/23 03:33:19;;;;;;;5.25;3.03;;;18.00;99.90;;;18.26;100.00;101269.56;5219993;28;20063;-49
2023/06/23 03:36:05;;;;;;;6.50;3.50;;;18.00;99.90;;;18.26;100.00;101278.34;5218081;28;20542;-49
2023/06/23 03:38:44;;;;;;;7.15;3.22;;;18.10;99.90;;;18.27;100.00;101276.59;5219004;28;20059;-49
2023/06/23 03:41:17;;;;;;;6.65;3.00;;;18.00;99.90;;;18.29;100.00;101274.84;5227514;28;20044;-50
2023/06/23 03:43:53;;;;;;;8.48;3.90;;;18.10;99.90;;;18.28;100.00;101281.88;5227374;28;20051;-49
2023/06/23 03:46:32;;;;;;;7.00;3.60;;;18.10;99.90;;;18.27;100.00;101281.88;5221629;28;20052;-49
2023/06/23 03:49:07;;;;;;;8.73;4.05;;;18.10;99.90;;;18.24;100.00;101295.03;5226005;28;20052;-50
2023/06/23 03:51:43;;;;;;;8.90;4.18;;;18.00;99.90;;;18.23;100.00;101295.88;5212343;28;20053;-49
2023/06/23 03:54:18;;;;;;;8.63;4.65;;;18.00;99.90;;;18.18;100.00;101299.34;5215774;28;20049;-50
2023/06/23 03:56:52;;;;;;;7.72;3.75;;;18.00;99.90;;;18.23;100.00;101314.38;5214635;28;20444;-51
2023/06/23 03:59:28;;;;;;;8.70;4.25;;;18.00;99.90;;;18.24;100.00;101324.03;5223775;28;20052;-49
2023/06/23 04:02:02;;;;;;;5.05;3.15;;;18.00;99.90;;;18.27;100.00;101321.47;5217063;28;20131;-50
2023/06/23 04:04:36;;;;;;;8.90;4.43;;;18.00;99.90;;;18.31;100.00;101323.25;5212779;28;20060;-49
2023/06/23 04:07:11;;;;;;;8.95;3.88;;;18.10;99.90;;;18.34;100.00;101331.22;5217193;28;20087;-49
2023/06/23 04:09:48;;;;;;;8.98;4.80;;;18.10;99.90;;;18.35;100.00;101320.66;5227242;28;20055;-49
2023/06/23 04:12:21;;;;;;;8.60;4.65;;;18.10;99.90;;;18.34;100.00;101320.66;5222769;28;20041;-50
2023/06/23 04:14:55;;;;;;;8.95;4.47;;;18.10;99.90;;;18.32;100.00;101335.56;5222574;28;20059;-50
2023/06/23 04:17:29;;;;;;;10.15;5.13;;;18.10;99.90;;;18.33;100.00;101326.81;5218580;28;20048;-48
2023/06/23 04:20:03;;;;;;;8.25;4.28;;;18.10;99.90;;;18.34;100.00;101331.22;5224714;28;20492;-49
2023/06/23 04:22:41;;;;;;;8.50;4.38;;;18.10;99.90;;;18.34;100.00;101332.09;5227632;28;20041;-49
2023/06/23 04:25:14;;;;;;;9.80;4.88;;;18.10;99.90;;;18.36;100.00;101338.28;5226585;28;20063;-50
2023/06/23 04:27:53;;;;;;;8.85;4.60;;;18.20;99.90;;;18.38;100.00;101348.84;5217943;28;20076;-50
2023/06/23 04:30:28;;;;;;;11.10;5.20;;;18.20;99.90;;;18.41;100.00;101359.44;5222909;28;20041;-50
2023/06/23 04:33:01;;;;;;;11.02;4.50;;;18.20;99.90;;;18.43;100.00;101358.59;5218350;28;20044;-49
2023/06/23 04:35:33;;;;;;;8.52;4.05;;;18.20;99.90;;;18.49;100.00;101370.09;5222589;28;20049;-48
2023/06/23 04:38:11;;;;;;;7.90;4.75;;;18.30;99.90;;;18.49;100.00;101373.63;5207334;28;20052;-49
2023/06/23 04:40:48;;;;;;;9.55;4.47;;;18.20;99.90;;;18.52;100.00;101378.94;5211088;28;20417;-51
2023/06/23 04:43:27;;;;;;;8.57;3.97;;;18.30;99.90;;;18.58;100.00;101373.75;5226689;28;20040;-50
2023/06/23 04:46:05;;;;;;;7.90;4.32;;;18.30;99.90;;;18.61;100.00;101379.03;5224689;28;20049;-50
2023/06/23 04:48:43;;;;;;;8.45;4.15;;;18.40;99.90;;;18.64;100.00;101376.41;5211167;28;20502;-49
2023/06/23 04:51:17;;;;;;;11.00;4.78;;;18.40;99.90;;;18.61;100.00;101386.97;5209848;28;20045;-49
2023/06/23 04:54:04;;;;;;;10.18;4.18;;;18.40;99.90;;;18.60;100.00;101385.19;5226228;28;20451;-50
2023/06/23 04:56:39;;;;;;;9.98;4.80;;;18.40;99.90;;;18.61;100.00;101384.31;5225391;28;20040;-49
2023/06/23 04:59:14;;;;;;;11.80;5.07;;;18.40;99.90;;;18.61;100.00;101394.88;5225986;28;20055;-50
2023/06/23 05:01:47;;;;;;;10.05;5.47;;;18.40;99.90;;;18.58;100.00;101394.88;5226142;28;20048;-49
2023/06/23 05:04:22;;;;;;;10.27;5.32;;;18.40;99.90;;;18.57;100.00;101398.34;5214527;28;20049;-48
2023/06/23 05:06:55;;;;;;;8.95;4.90;;;18.40;99.90;;;18.54;100.00;101398.31;5216504;28;20045;-49
2023/06/23 05:09:31;;;;;;;11.18;5.65;;;18.40;99.90;;;18.53;100.00;101412.41;5218156;28;20051;-50
2023/06/23 05:12:11;;;;;;;9.52;5.00;;;18.30;99.90;;;18.53;100.00;101417.69;5216005;28;20049;-50
2023/06/23 05:14:45;;;;;;;9.45;4.97;;;18.30;99.90;;;18.54;100.00;101414.16;5218050;28;20041;-50
2023/06/23 05:17:18;;;;;;;8.63;5.15;;;18.40;99.90;;;18.55;100.00;101420.31;5242572;28;20037;-50
2023/06/23 05:19:52;;;;;;;9.90;4.63;;;18.30;99.90;;;18.55;100.00;101425.59;5222169;28;20052;-50
2023/06/23 05:22:26;;;;;;;9.45;5.68;;;18.40;99.90;;;18.55;100.00;101420.31;5214245;28;20055;-49
2023/06/23 05:25:04;;;;;;;9.43;4.95;;;18.40;99.90;;;18.55;100.00;101425.59;5222342;28;20338;-50
2023/06/23 05:27:39;;;;;;;10.82;6.00;;;18.40;99.90;;;18.53;100.00;101436.16;5224981;28;20036;-49
2023/06/23 05:30:15;;;;;;;12.75;5.95;;;18.40;99.90;;;18.55;100.00;101450.25;5225594;28;20056;-49
2023/06/23 05:32:50;;;;;;;9.40;5.18;;;18.40;99.90;;;18.55;100.00;101442.34;5222084;28;20068;-49
2023/06/23 05:35:24;;;;;;;12.15;5.97;;;18.40;99.90;;;18.55;100.00;101452.91;5221799;28;20128;-49
2023/06/23 05:38:02;;;;;;;8.85;4.80;;;18.40;99.90;;;18.55;100.00;101446.72;5212407;28;20049;-50
2023/06/23 05:40:36;;;;;;;11.55;5.90;;;18.40;99.90;;;18.57;100.00;101445.88;5211757;28;20401;-49
2023/06/23 05:43:09;;;;;;;12.70;5.47;;;18.40;99.90;;;18.61;100.00;101446.81;5219519;28;20064;-49
2023/06/23 05:45:41;;;;;;;9.95;5.50;;;18.40;99.90;;;18.65;100.00;101448.63;5217404;28;20068;-49
2023/06/23 05:48:23;;;;;;;10.65;5.43;;;18.50;99.90;;;18.69;100.00;101453.97;5222230;28;20124;-49
2023/06/23 05:50:56;;;;;;;9.80;5.45;;;18.50;99.90;;;18.73;100.00;101456.66;5224703;28;20098;-50
2023/06/23 05:53:31;;;;;;;11.13;6.35;;;18.50;99.90;;;18.74;100.00;101455.78;5225603;28;20044;-49
2023/06/23 05:56:23;;;;;;;9.80;5.93;;;18.50;99.90;;;18.79;100.00;101454.09;5234510;28;20051;-49
2023/06/23 05:58:58;;;;;;;12.23;6.43;;;18.60;99.90;;;18.83;100.00;101453.25;5222322;28;20050;-50
2023/06/23 06:01:34;;;;;;;11.32;5.72;;;18.60;99.90;;;18.85;100.00;101462.97;5224872;28;20196;-50
2023/06/23 06:04:12;;;;;;;13.32;6.68;;;18.60;99.90;;;18.94;100.00;101462.19;5214994;28;20037;-49
2023/06/23 06:06:47;;;;;;;13.15;6.93;;;18.70;99.90;;;19.01;100.00;101460.50;5219355;28;20409;-49
2023/06/23 06:09:20;;;;;;;9.73;5.97;;;18.70;99.90;;;19.04;100.00;101466.72;5216462;28;20556;-49
2023/06/23 06:11:59;;;;;;;;;;;18.80;99.90;;;19.06;100.00;101472.91;5226070;28;20040;-49
2023/06/23 06:14:34;;;;;;;10.13;5.68;;;18.80;99.90;;;19.09;100.00;101482.59;5225906;28;19921;-49
2023/06/23 06:17:08;;;;;;;11.20;5.60;;;18.90;99.90;;;19.09;100.00;101478.19;5224010;28;20408;-49
2023/06/23 06:19:41;;;;;;;;;;;18.90;99.90;;;19.10;100.00;101487.91;5225800;28;20537;-49
2023/06/23 06:22:15;;;;;;;9.52;5.63;;;18.90;99.90;;;19.09;100.00;101483.47;5224492;28;19920;-49
2023/06/23 06:24:48;;;;;;;13.48;7.38;;;18.90;99.90;;;19.07;100.00;101495.81;5210018;28;20045;-50
2023/06/23 06:27:23;;;;;;;9.35;4.88;;;18.90;99.90;;;19.07;100.00;101501.09;5223764;28;20051;-48
2023/06/23 06:29:57;;;;;;;11.73;6.28;;;18.90;99.90;;;19.07;100.00;101500.22;5208961;28;20506;-48
2023/06/23 06:32:33;;;;;;;11.00;6.70;;;18.80;99.90;;;19.04;100.00;101506.34;5212765;28;20135;-50
2023/06/23 06:35:10;;;;;;;9.68;5.78;;;18.90;99.90;;;19.05;100.00;101507.25;5212569;28;20045;-49
2023/06/23 06:37:47;;;;;;;8.43;4.22;;;18.80;99.90;;;19.24;100.00;101512.75;5216163;28;20043;-48
2023/06/23 06:40:25;;;;;;;8.25;4.60;;;19.00;99.90;;;19.53;100.00;101507.72;5223923;28;20060;-50
2023/06/23 06:42:59;;;;;;;9.35;5.22;;;19.30;99.90;;;19.81;100.00;101510.66;5226654;28;20037;-49
2023/06/23 06:45:31;;;;;;;11.57;5.45;;;19.50;99.90;;;19.95;100.00;101521.34;5217136;28;20382;-50
2023/06/23 06:48:10;;;;;;;9.77;4.90;;;19.70;99.90;;;20.16;100.00;101523.28;5215951;28;20049;-49
2023/06/23 06:50:43;;;;;;;9.63;5.30;;;19.90;99.90;;;20.38;100.00;101529.59;5224944;28;20047;-52
2023/06/23 06:53:17;;;;;;;8.32;4.55;;;20.10;99.90;;;20.54;100.00;101528.84;5224132;28;20059;-50
2023/06/23 06:55:53;;;;;;;8.70;4.20;;;20.30;99.90;;;20.74;100.00;101537.78;5217867;28;20057;-50
2023/06/23 06:58:27;;;;;;;10.65;5.13;;;20.40;99.90;;;20.94;100.00;101542.28;5223090;28;20412;-49
2023/06/23 07:01:00;;;;;;;12.55;7.15;;;20.60;99.90;;;21.05;100.00;101548.50;5216182;28;20386;-49
2023/06/23 07:03:33;;;;;;;9.00;4.43;;;20.70;99.90;;;21.03;100.00;101555.56;5212791;28;20052;-52
2023/06/23 07:06:10;;;;;;;8.40;5.25;;;20.80;99.90;;;21.12;100.00;101560.88;5204188;28;20053;-51
2023/06/23 07:08:43;;;;;;;9.93;5.03;;;20.90;99.90;;;21.12;100.00;101560.88;5210437;28;20045;-49
2023/06/23 07:11:17;;;;;;;10.77;6.03;;;20.90;99.90;;;21.14;100.00;101559.16;5214301;28;20044;-50
2023/06/23 07:13:50;;;;;;;9.45;5.03;;;20.90;99.90;;;21.23;100.00;101563.59;5219638;28;20093;-50
2023/06/23 07:16:23;;;;;;;8.13;4.65;;;20.90;99.90;;;21.37;100.00;101576.03;5224688;28;20048;-52
2023/06/23 07:18:55;;;;;;;10.15;4.47;;;21.00;99.90;;;21.46;100.00;101571.66;5224514;28;20049;-50
2023/06/23 07:21:28;;;;;;;7.28;4.25;;;21.10;99.90;;;21.49;100.00;101585.78;5211840;28;20472;-50
2023/06/23 07:24:04;;;;;;;8.82;4.95;;;21.10;99.90;;;21.52;100.00;101584.94;5224246;28;20092;-50
2023/06/23 07:26:37;;;;;;;7.47;4.32;;;21.20;99.90;;;21.53;100.00;101584.94;5231654;28;20041;-50
2023/06/23 07:29:11;;;;;;;8.88;5.22;;;21.20;99.90;;;21.63;100.00;101588.47;5210787;28;20152;-53
2023/06/23 07:31:43;;;;;;;6.57;4.15;;;21.20;99.90;;;21.72;100.00;101595.56;5214944;28;20353;-49
2023/06/23 07:34:15;;;;;;;8.27;4.53;;;21.30;99.90;;;21.77;100.00;101593.78;5221558;28;20048;-52
2023/06/23 07:36:48;;;;;;;8.98;4.70;;;21.40;99.90;;;21.79;100.00;101603.53;5227002;28;20041;-51
2023/06/23 07:39:20;;;;;;;10.98;5.50;;;21.40;99.90;;;21.77;100.00;101605.28;5219428;28;20053;-50
2023/06/23 07:41:53;;;;;;;7.80;4.93;;;21.40;99.90;;;21.75;100.00;101607.06;5226735;28;20067;-51
2023/06/23 07:44:27;;;;;;;9.15;4.25;;;21.40;99.90;;;21.85;100.00;101608.88;5218682;28;20524;-50
2023/06/23 07:46:59;;;;;;;7.38;3.90;;;21.50;99.90;;;22.08;100.00;101595.59;5227153;28;20041;-51
2023/06/23 07:49:32;;;;;;;7.13;4.00;;;21.60;99.90;;;22.38;100.00;101610.66;5243819;28;20056;-50
2023/06/23 07:52:05;;;;;;;6.18;3.70;;;21.90;99.90;;;22.59;100.00;101608.88;5220050;28;20053;-53
2023/06/23 07:54:38;;;;;;;6.90;3.80;;;22.10;99.90;;;22.80;100.00;101608.81;5221015;28;20037;-50
2023/06/23 07:57:12;;;;;;;6.70;3.90;;;22.30;99.90;;;22.96;100.00;101602.59;5222947;28;20044;-53
2023/06/23 07:59:46;;;;;;;9.80;5.00;;;22.40;99.90;;;23.20;100.00;101598.06;5227223;28;20527;-51
2023/06/23 08:02:19;;;;;;;8.25;4.70;;;22.50;99.90;;;23.51;100.00;101594.34;5226888;28;20053;-53
2023/06/23 08:04:51;;;;;;;8.45;3.90;;;22.80;99.90;;;24.04;100.00;101601.09;5213395;28;20517;-51
2023/06/23 08:07:23;;;;;;;7.00;3.67;;;23.10;99.90;;;24.55;100.00;101603.34;5241919;28;20051;-51
2023/06/23 08:09:56;;;;;;;6.00;3.97;;;23.50;99.90;;;24.91;100.00;101607.41;5223502;28;20053;-49
2023/06/23 08:12:28;;;;;;;5.15;3.10;;;23.80;99.90;;;25.15;98.51;101607.13;5242746;28;20066;-50
2023/06/23 08:15:02;;;;;;;5.03;3.35;;;24.00;99.90;;;25.37;97.04;101612.22;5224766;28;20076;-49
2023/06/23 08:17:35;;;;;;;5.57;3.03;;;24.20;99.90;;;25.84;95.20;101614.22;5216356;28;20036;-49
2023/06/23 08:20:09;;;;;;;4.82;3.15;;;24.50;99.90;;;26.07;92.96;101621.84;5223949;28;20045;-49
2023/06/23 08:22:42;;;;;;;5.57;3.05;;;24.70;99.90;;;25.91;92.39;101617.69;5222019;28;20045;-50
2023/06/23 08:25:14;;;;;;;9.13;3.88;;;24.70;99.90;;;25.64;92.82;101622.50;5223263;28;20061;-49
2023/06/23 08:27:47;;;;;;;5.88;3.53;;;24.60;99.90;;;25.73;93.01;101626.84;5226371;28;20127;-49
2023/06/23 08:30:28;;;;;;;6.68;3.97;;;24.60;99.90;;;26.28;91.95;101634.00;5226837;28;20056;-50
2023/06/23 08:33:01;;;;;;;7.15;3.60;;;24.70;99.90;;;27.20;89.37;101625.16;5226564;28;20409;-50
2023/06/23 08:35:33;;;;;;;5.40;3.00;;;25.10;99.90;;;28.29;85.39;101626.19;5226022;28;20501;-50
2023/06/23 08:38:12;;;;;;;4.53;2.60;;;25.60;99.90;;;29.52;80.71;101634.44;5222463;28;20041;-50
2023/06/23 08:40:47;;;;;;;4.32;2.25;;;26.30;99.40;;;30.57;77.08;101631.91;5219603;28;20051;-50
2023/06/23 08:43:25;;;;;;;3.88;2.22;;;27.00;98.10;;;31.92;72.34;101634.00;5226284;28;20056;-49
2023/06/23 08:46:00;;;;;;;3.97;2.35;;;28.00;96.30;;;33.02;66.75;101640.06;5234702;28;20610;-49
2023/06/23 08:48:33;;;;;;;3.85;2.40;;;29.00;92.80;;;33.79;63.98;101647.28;5226342;28;20040;-49
2023/06/23 08:51:09;;;;;;;3.78;2.30;;;29.70;90.60;;;34.39;61.53;101656.00;5218752;28;20059;-49
2023/06/23 08:53:43;;;;;;;4.38;2.50;;;30.40;86.50;;;34.90;60.58;101665.09;5214586;28;20045;-48
2023/06/23 08:56:19;;;;;;;4.18;2.88;;;30.90;83.60;;;34.99;59.80;101653.78;5222161;28;20059;-48
2023/06/23 08:58:51;;;;;;;5.30;2.55;;;31.20;81.00;;;34.89;59.05;101657.94;5226516;28;20066;-47
2023/06/23 09:01:25;;;;;;;4.30;2.40;;;31.30;79.20;;;34.81;58.85;101659.19;5217869;28;20052;-47
2023/06/23 09:03:57;;;;;;;6.25;2.60;;;31.30;77.90;;;35.28;58.46;101660.34;5226242;28;20443;-49
2023/06/23 09:06:30;;;;;;;6.72;2.35;;;31.60;77.10;;;35.47;55.88;101660.19;5223952;28;20055;-50
2023/06/23 09:09:02;;;;;;;8.05;2.38;;;31.90;73.20;;;35.56;55.79;101667.84;5222235;28;20051;-48
2023/06/23 09:11:35;;;;;;;6.18;2.55;;;32.00;72.30;;;35.97;54.84;101673.63;5214471;28;20079;-49
2023/06/23 09:14:11;;;;;;;4.97;2.25;;;32.40;71.60;;;36.25;53.56;101664.72;5222035;28;20048;-51
2023/06/23 09:16:46;;;;;;;8.75;2.75;;;32.60;69.40;;;34.64;54.45;101680.03;5234258;28;20044;-50
2023/06/23 09:19:19;;;;;;;10.07;2.53;;;32.00;68.20;;;33.42;57.65;101670.66;5224691;28;20056;-50
2023/06/23 09:21:53;;;;;;;5.90;2.40;;;31.20;70.00;;;33.51;57.81;101680.16;5224547;28;20044;-52
2023/06/23 09:24:40;;;;;;;8.30;2.53;;;30.90;71.00;;;32.79;59.23;101675.28;5225818;28;20048;-49
2023/06/23 09:27:13;;;;;;;5.22;2.47;;;30.50;71.80;;;32.35;59.91;101681.69;5223423;28;20401;-48
2023/06/23 09:30:00;;;;;;;4.35;2.38;;;30.20;72.00;;;31.83;60.67;101682.91;5225790;28;20051;-50
2023/06/23 09:32:34;;;;;;;3.35;2.20;;;29.80;72.30;;;31.01;61.37;101665.34;5224878;28;20049;-50
2023/06/23 09:35:08;;;;;;;3.20;2.15;;;29.40;72.30;;;29.88;63.32;101675.44;5223104;28;20444;-50
2023/06/23 09:37:40;;;;;;;4.00;2.50;;;28.80;73.00;;;29.07;65.89;101674.25;5224520;28;20071;-48
2023/06/23 09:40:16;;;;;;;8.05;5.95;;;28.10;74.60;;;28.52;69.64;101671.22;5225345;28;20067;-45
2023/06/23 09:42:48;;;;;;;8.18;5.28;;;27.70;77.70;;;28.32;71.40;101670.88;5221950;28;20638;-44
2023/06/23 09:45:23;;;;;;;7.00;4.25;;;27.40;79.50;;;28.19;71.62;101683.66;5212672;28;20493;-45
2023/06/23 09:47:57;;;;;;;6.53;3.47;;;27.20;79.80;;;27.79;72.31;101687.28;5242109;28;20044;-49
2023/06/23 09:50:30;;;;;;;5.07;3.20;;;26.90;80.40;;;27.36;73.35;101681.03;5222597;28;20053;-48
2023/06/23 09:53:04;;;;;;;4.43;3.08;;;26.60;81.00;;;26.98;75.04;101688.00;5225159;28;20098;-48
2023/06/23 09:55:36;;;;;;;4.78;2.92;;;26.30;82.30;;;26.66;76.84;101691.25;5222022;28;20040;-47
2023/06/23 09:58:10;;;;;;;4.70;2.97;;;26.10;83.70;;;26.59;78.16;101692.28;5224933;28;20060;-49
2023/06/23 10:00:43;;;;;;;5.00;3.03;;;26.00;85.20;;;26.66;78.01;101689.47;5208146;28;20060;-48
2023/06/23 10:03:16;;;;;;;6.72;3.25;;;25.90;85.70;;;26.62;77.38;101689.56;5221597;28;20418;-48
2023/06/23 10:05:49;;;;;;;4.47;2.90;;;25.90;85.50;;;26.40;77.72;101699.72;5224585;28;20095;-48
2023/06/23 10:08:21;;;;;;;6.85;3.15;;;25.70;85.60;;;26.48;78.71;101700.50;5224333;28;20392;-48
2023/06/23 10:10:54;;;;;;;5.28;2.90;;;25.70;86.60;;;26.64;79.16;101707.34;5224763;28;20465;-49
2023/06/23 10:13:26;;;;;;;4.82;2.92;;;25.80;87.80;;;26.62;78.77;101698.47;5224429;28;20048;-47
2023/06/23 10:16:00;;;;;;;4.72;3.10;;;25.80;87.60;;;26.51;79.26;101697.78;5234493;28;20044;-49
2023/06/23 10:18:34;;;;;;;4.90;3.35;;;25.70;87.90;;;26.54;79.26;101703.09;5223758;28;20040;-48
2023/06/23 10:21:07;;;;;;;4.15;3.10;;;25.70;88.20;;;26.72;79.32;101707.22;5177374;28;20058;-48
2023/06/23 10:23:40;;;;;;;4.13;2.88;;;25.90;88.70;;;26.95;78.27;101712.16;5199888;28;20040;-48
2023/06/23 10:26:13;;;;;;;6.65;3.45;;;26.10;88.40;;;26.84;77.97;101708.78;5208403;28;20064;-47
2023/06/23 10:28:47;;;;;;;5.88;3.17;;;26.00;87.80;;;26.64;78.51;101710.03;5190899;28;20361;-47
2023/06/23 10:31:21;;;;;;;;;;;25.90;88.10;;;26.51;78.76;101712.03;5200325;28;20522;-47
2023/06/23 10:33:58;;;;;;;6.50;3.50;;;25.80;88.30;;;26.68;78.88;101717.09;5204162;28;19924;-48
2023/06/23 10:36:32;;;;;;;4.30;2.88;;;25.90;88.90;;;26.81;78.36;101719.56;5195247;28;20525;-51
2023/06/23 10:39:06;;;;;;;5.40;3.38;;;25.90;88.60;;;26.69;77.88;101718.84;5204342;28;20048;-47
2023/06/23 10:41:41;;;;;;;5.88;3.72;;;25.90;88.10;;;26.51;78.10;101728.06;5193375;28;20049;-47